createdAt,value
2019-03-17T00:02:21.977Z,5.20
2019-03-17T00:07:27.117Z,5.20
2019-03-17T00:12:32.193Z,5.20
2019-03-17T00:17:37.437Z,5.20
2019-03-17T00:22:42.708Z,5.30
2019-03-17T00:27:48.401Z,5.40
2019-03-17T00:33:03.929Z,5.40
2019-03-17T00:38:09.571Z,5.50
2019-03-17T00:43:15.077Z,5.50
2019-03-17T00:48:20.202Z,5.60
2019-03-17T00:53:25.806Z,5.70
2019-03-17T00:58:31.122Z,5.80
2019-03-17T01:03:55.538Z,5.80
2019-03-17T01:09:00.886Z,5.80
2019-03-17T01:14:06.027Z,5.90
2019-03-17T01:19:30.894Z,5.90
2019-03-17T01:24:36.218Z,6.00
2019-03-17T01:29:41.141Z,6.00
2019-03-17T01:34:46.778Z,6.00
2019-03-17T01:39:51.625Z,6.00
2019-03-17T01:44:57.041Z,6.10
2019-03-17T01:50:02.238Z,6.20
2019-03-17T01:55:08.568Z,6.30
2019-03-17T02:00:33.016Z,6.30
2019-03-17T02:05:38.499Z,6.40
2019-03-17T02:10:45.221Z,6.40
2019-03-17T02:15:51.822Z,6.40
2019-03-17T02:20:58.334Z,6.50
2019-03-17T02:26:04.041Z,6.60
2019-03-17T02:31:10.261Z,6.60
2019-03-17T02:36:16.819Z,6.60
2019-03-17T02:41:22.726Z,6.60
2019-03-17T02:46:28.406Z,6.70
2019-03-17T02:51:33.971Z,6.80
2019-03-17T02:56:40.729Z,6.80
2019-03-17T03:01:46.325Z,6.90
2019-03-17T03:06:52.040Z,6.90
2019-03-17T03:11:57.244Z,6.90
2019-03-17T03:17:02.363Z,6.90
2019-03-17T03:22:07.956Z,6.90
2019-03-17T03:27:13.159Z,7.00
2019-03-17T03:32:18.377Z,7.00
2019-03-17T03:37:42.858Z,7.10
2019-03-17T03:42:47.998Z,7.10
2019-03-17T03:47:53.165Z,7.20
2019-03-17T03:52:58.786Z,7.20
2019-03-17T03:58:04.158Z,7.30
2019-03-17T04:03:09.261Z,7.30
2019-03-17T04:08:14.454Z,7.30
2019-03-17T04:13:19.557Z,7.40
2019-03-17T04:18:24.945Z,7.40
2019-03-17T04:23:29.774Z,7.50
2019-03-17T04:28:35.072Z,7.60
2019-03-17T04:33:40.253Z,7.60
2019-03-17T04:38:45.333Z,7.60
2019-03-17T04:43:50.480Z,7.60
2019-03-17T04:48:55.771Z,7.60
2019-03-17T04:54:00.793Z,7.60
2019-03-17T04:59:05.918Z,7.70
2019-03-17T05:04:11.148Z,7.70
2019-03-17T05:09:16.050Z,7.80
2019-03-17T05:14:22.842Z,7.70
2019-03-17T05:19:27.972Z,7.80
2019-03-17T05:24:33.251Z,7.80
2019-03-17T05:29:38.602Z,7.80
2019-03-17T05:34:43.957Z,7.80
2019-03-17T05:39:49.134Z,7.90
2019-03-17T05:44:54.456Z,7.90
2019-03-17T05:50:18.938Z,7.90
2019-03-17T05:55:24.026Z,7.90
2019-03-17T06:00:29.393Z,7.90
2019-03-17T06:05:34.610Z,8.00
2019-03-17T06:10:58.675Z,7.90
2019-03-17T06:16:03.807Z,8.00
2019-03-17T06:21:10.601Z,8.10
2019-03-17T06:26:27.337Z,8.20
2019-03-17T06:31:32.651Z,8.30
2019-03-17T06:36:38.150Z,8.40
2019-03-17T06:42:02.528Z,8.50
2019-03-17T06:47:07.610Z,8.60
2019-03-17T06:52:13.042Z,8.50
2019-03-17T06:57:18.217Z,8.60
2019-03-17T07:02:23.987Z,8.70
2019-03-17T07:07:29.552Z,8.80
2019-03-17T07:12:35.208Z,8.80
2019-03-17T07:17:40.652Z,8.80
2019-03-17T07:22:45.823Z,8.90
2019-03-17T07:27:51.956Z,9.00
2019-03-17T07:32:56.801Z,9.20
2019-03-17T07:38:02.497Z,9.40
2019-03-17T07:43:07.674Z,9.50
2019-03-17T07:49:02.365Z,9.60
2019-03-17T07:54:09.378Z,9.90
2019-03-17T07:59:33.804Z,10.10
2019-03-17T08:04:43.067Z,10.30
2019-03-17T08:09:47.316Z,10.50
2019-03-17T08:14:52.656Z,10.60
2019-03-17T08:20:04.345Z,10.70
2019-03-17T08:25:14.888Z,10.70
2019-03-17T08:30:28.769Z,10.80
2019-03-17T08:35:35.487Z,10.90
2019-03-17T08:40:40.681Z,11.20
2019-03-17T08:45:45.797Z,11.50
2019-03-17T08:50:51.138Z,11.40
2019-03-17T08:55:56.459Z,11.40
2019-03-17T09:01:01.762Z,11.70
2019-03-17T09:06:07.122Z,12.00
2019-03-17T09:11:11.955Z,12.30
2019-03-17T09:16:16.781Z,12.30
2019-03-17T09:21:21.701Z,12.40
2019-03-17T09:26:26.894Z,12.60
2019-03-17T09:31:31.637Z,12.40
2019-03-17T09:36:37.122Z,12.30
2019-03-17T09:42:01.543Z,12.30
2019-03-17T09:47:06.755Z,12.30
2019-03-17T09:52:12.033Z,12.40
2019-03-17T09:57:16.915Z,12.40
2019-03-17T10:02:42.719Z,12.40
2019-03-17T10:07:54.475Z,12.50
2019-03-17T10:13:36.367Z,12.40
2019-03-17T10:18:45.360Z,12.30
2019-03-17T10:24:10.173Z,12.20
2019-03-17T10:29:16.651Z,12.10
2019-03-17T10:34:24.241Z,12.20
2019-03-17T10:39:30.462Z,12.30
2019-03-17T10:44:35.910Z,12.20
2019-03-17T10:49:40.910Z,12.20
2019-03-17T10:54:45.971Z,12.10
2019-03-17T10:59:51.749Z,12.10
2019-03-17T11:04:57.542Z,12.20
2019-03-17T11:10:22.125Z,12.30
2019-03-17T11:15:27.552Z,12.50
2019-03-17T11:20:32.851Z,12.80
2019-03-17T11:25:38.078Z,13.00
2019-03-17T11:30:43.560Z,13.30
2019-03-17T11:35:49.118Z,13.50
2019-03-17T11:41:13.327Z,13.80
2019-03-17T11:46:29.296Z,14.00
2019-03-17T11:51:37.757Z,14.00
2019-03-17T11:56:43.067Z,13.90
2019-03-17T12:01:48.158Z,13.70
2019-03-17T12:06:53.268Z,13.90
2019-03-17T12:11:58.792Z,14.30
2019-03-17T12:17:04.067Z,14.50
2019-03-17T12:22:10.084Z,14.30
2019-03-17T12:27:16.080Z,14.40
2019-03-17T12:32:22.227Z,14.40
2019-03-17T12:37:28.068Z,14.30
2019-03-17T12:42:33.402Z,14.40
2019-03-17T12:47:39.030Z,14.40
2019-03-17T12:52:43.955Z,14.30
2019-03-17T12:57:49.448Z,14.20
2019-03-17T13:02:54.701Z,14.20
2019-03-17T13:08:00.683Z,14.20
2019-03-17T13:13:06.004Z,14.20
2019-03-17T13:18:15.285Z,14.30
2019-03-17T13:23:20.437Z,14.20
2019-03-17T13:28:25.799Z,14.30
2019-03-17T13:33:43.184Z,14.30
2019-03-17T13:38:48.645Z,14.30
2019-03-17T13:43:53.602Z,14.40
2019-03-17T13:48:59.173Z,14.50
2019-03-17T13:54:04.828Z,14.80
2019-03-17T13:59:10.489Z,15.20
2019-03-17T14:04:17.806Z,15.50
2019-03-17T14:09:22.903Z,15.60
2019-03-17T14:14:28.430Z,15.70
2019-03-17T14:19:33.593Z,15.80
2019-03-17T14:24:39.323Z,15.70
2019-03-17T14:29:44.713Z,15.60
2019-03-17T14:34:53.210Z,15.60
2019-03-17T14:39:59.298Z,15.60
2019-03-17T14:45:08.454Z,15.50
2019-03-17T14:50:25.036Z,15.30
2019-03-17T14:55:30.958Z,15.10
2019-03-17T15:00:36.839Z,14.90
2019-03-17T15:05:42.442Z,14.90
2019-03-17T15:10:48.493Z,14.80
2019-03-17T15:16:02.782Z,14.70
2019-03-17T15:21:04.953Z,14.70
2019-03-17T15:26:11.244Z,14.60
2019-03-17T15:31:17.462Z,14.60
2019-03-17T15:36:23.176Z,14.60
2019-03-17T15:41:28.494Z,14.40
2019-03-17T15:46:34.072Z,14.40
2019-03-17T15:51:39.208Z,14.30
2019-03-17T15:56:44.552Z,14.20
2019-03-17T16:01:49.975Z,14.10
2019-03-17T16:06:55.394Z,14.00
2019-03-17T16:12:00.954Z,14.00
2019-03-17T16:17:06.827Z,13.90
2019-03-17T16:22:12.747Z,13.80
2019-03-17T16:27:18.237Z,13.80
2019-03-17T16:32:24.794Z,13.70
2019-03-17T16:37:30.192Z,13.60
2019-03-17T16:42:35.684Z,13.60
2019-03-17T16:47:41.386Z,13.50
2019-03-17T16:52:47.142Z,13.40
2019-03-17T16:57:52.936Z,13.40
2019-03-17T17:02:58.775Z,13.30
2019-03-17T17:08:04.671Z,13.10
2019-03-17T17:13:10.403Z,13.00
2019-03-17T17:18:16.268Z,12.90
2019-03-17T17:23:22.081Z,12.80
2019-03-17T17:28:27.590Z,12.70
2019-03-17T17:33:32.902Z,12.60
2019-03-17T17:38:38.487Z,12.50
2019-03-17T17:43:44.802Z,12.50
2019-03-17T17:48:50.490Z,12.50
2019-03-17T17:53:56.092Z,12.40
2019-03-17T17:59:01.651Z,12.30
2019-03-17T18:04:07.048Z,12.10
2019-03-17T18:09:12.246Z,12.00
2019-03-17T18:14:17.595Z,11.90
2019-03-17T18:19:22.927Z,11.90
2019-03-17T18:24:27.997Z,11.80
2019-03-17T18:29:32.987Z,11.70
2019-03-17T18:35:05.470Z,11.40
2019-03-17T18:40:34.352Z,10.80
2019-03-17T18:45:42.523Z,10.10
2019-03-17T18:50:46.847Z,9.60
2019-03-17T18:56:11.277Z,9.30
2019-03-17T19:01:35.547Z,9.00
2019-03-17T19:06:40.908Z,8.80
2019-03-17T19:11:46.426Z,8.60
2019-03-17T19:16:51.825Z,8.40
2019-03-17T19:21:57.381Z,8.20
2019-03-17T19:27:04.978Z,8.00
2019-03-17T19:32:30.537Z,7.90
2019-03-17T19:37:57.936Z,7.80
2019-03-17T19:43:03.018Z,7.60
2019-03-17T19:48:08.254Z,7.50
2019-03-17T19:53:13.395Z,7.40
2019-03-17T19:58:18.489Z,7.30
2019-03-17T20:03:25.144Z,7.20
2019-03-17T20:08:30.331Z,7.10
2019-03-17T20:13:35.444Z,7.00
2019-03-17T20:18:41.526Z,7.00
2019-03-17T20:23:46.880Z,7.00
2019-03-17T20:29:11.119Z,6.90
2019-03-17T20:34:28.138Z,6.80
2019-03-17T20:39:33.229Z,6.80
2019-03-17T20:44:38.311Z,6.70
2019-03-17T20:49:43.497Z,6.80
2019-03-17T20:54:48.736Z,6.70
2019-03-17T20:59:53.878Z,6.70
2019-03-17T21:04:58.936Z,6.70
2019-03-17T21:10:05.539Z,6.60
2019-03-17T21:15:16.231Z,6.60
2019-03-17T21:20:26.085Z,6.50
2019-03-17T21:25:31.194Z,6.60
2019-03-17T21:30:55.843Z,6.50
2019-03-17T21:36:01.509Z,6.50
2019-03-17T21:41:07.494Z,6.50
2019-03-17T21:46:12.703Z,6.50
2019-03-17T21:51:17.792Z,6.40
2019-03-17T21:56:42.175Z,6.40
2019-03-17T22:01:47.374Z,6.30
2019-03-17T22:07:11.746Z,6.30
2019-03-17T22:12:16.679Z,6.30
2019-03-17T22:22:40.288Z,6.20
2019-03-17T22:27:45.460Z,6.20
2019-03-17T22:32:50.824Z,6.20
2019-03-17T22:37:55.838Z,6.20
2019-03-17T22:43:20.138Z,6.20
2019-03-17T22:48:25.398Z,6.20
2019-03-17T22:53:49.856Z,6.10
2019-03-17T22:58:55.209Z,6.10
2019-03-17T23:04:00.519Z,6.20
2019-03-17T23:09:07.577Z,6.30
2019-03-17T23:14:12.918Z,6.30
2019-03-17T23:19:17.997Z,6.40
2019-03-17T23:24:23.167Z,6.40
2019-03-17T23:29:28.390Z,6.40
2019-03-17T23:34:33.857Z,6.50
2019-03-17T23:39:38.913Z,6.40
2019-03-17T23:44:48.894Z,6.40
2019-03-17T23:50:11.329Z,6.40
2019-03-17T23:55:16.696Z,6.40
